createdAt,value
2023-01-07T00:01:37.128Z,98978.03
2023-01-07T00:04:06.192Z,98975.38
2023-01-07T00:06:36.019Z,98977.16
2023-01-07T00:09:04.045Z,98976.28
2023-01-07T00:11:39.382Z,98980.66
2023-01-07T00:14:08.351Z,98985.94
2023-01-07T00:16:36.353Z,98979.78
2023-01-07T00:19:04.573Z,98978.91
2023-01-07T00:21:37.851Z,98978.03
2023-01-07T00:24:06.212Z,98976.25
2023-01-07T00:26:40.483Z,98978.88
2023-01-07T00:29:08.126Z,98973.56
2023-01-07T00:31:37.304Z,98971.81
2023-01-07T00:34:04.587Z,98970.03
2023-01-07T00:36:35.735Z,98974.44
2023-01-07T00:39:07.045Z,98966.50
2023-01-07T00:41:34.016Z,98966.50
2023-01-07T00:44:00.635Z,98971.78
2023-01-07T00:46:27.198Z,98965.63
2023-01-07T00:48:53.744Z,98970.03
2023-01-07T00:51:28.213Z,98964.75
2023-01-07T00:53:57.415Z,98956.84
2023-01-07T00:56:23.983Z,98964.81
2023-01-07T00:58:50.505Z,98964.81
2023-01-07T01:01:17.139Z,98952.47
2023-01-07T01:03:43.737Z,98957.78
2023-01-07T01:06:15.621Z,98958.66
2023-01-07T01:08:47.319Z,98948.91
2023-01-07T01:11:15.455Z,98957.72
2023-01-07T01:13:43.309Z,98955.09
2023-01-07T01:16:16.282Z,98959.47
2023-01-07T01:18:43.984Z,98955.06
2023-01-07T01:21:13.210Z,98948.91
2023-01-07T01:23:39.883Z,98940.09
2023-01-07T01:26:12.542Z,98947.09
2023-01-07T01:28:39.118Z,98939.19
2023-01-07T01:31:08.257Z,98948.91
2023-01-07T01:33:35.328Z,98948.91
2023-01-07T01:36:10.558Z,98946.25
2023-01-07T01:38:40.785Z,98949.78
2023-01-07T01:41:07.728Z,98954.13
2023-01-07T01:43:40.163Z,98952.38
2023-01-07T01:46:16.170Z,98951.53
2023-01-07T01:48:51.427Z,98959.47
2023-01-07T01:51:22.194Z,98954.13
2023-01-07T01:53:50.794Z,98961.22
2023-01-07T01:56:27.625Z,98964.69
2023-01-07T01:59:01.483Z,98964.69
2023-01-07T02:01:32.450Z,98964.69
2023-01-07T02:04:00.955Z,98954.13
2023-01-07T02:06:33.458Z,98948.84
2023-01-07T02:09:00.235Z,98945.31
2023-01-07T02:11:41.671Z,98940.94
2023-01-07T02:14:30.384Z,98930.34
2023-01-07T02:17:08.875Z,98930.34
2023-01-07T02:19:54.116Z,98935.63
2023-01-07T02:22:44.686Z,98932.13
2023-01-07T02:25:20.963Z,98932.13
2023-01-07T02:28:13.664Z,98936.50
2023-01-07T02:30:58.518Z,98927.66
2023-01-07T02:33:28.048Z,98931.19
2023-01-07T02:35:57.453Z,98931.19
2023-01-07T02:38:35.363Z,98929.41
2023-01-07T02:41:28.933Z,98922.38
2023-01-07T02:44:04.866Z,98916.22
2023-01-07T02:46:35.773Z,98916.22
2023-01-07T02:49:07.852Z,98914.47
2023-01-07T02:51:36.806Z,98911.81
2023-01-07T02:54:07.239Z,98907.41
2023-01-07T02:56:51.737Z,98908.28
2023-01-07T02:59:53.487Z,98903.00
2023-01-07T03:02:51.529Z,98903.88
2023-01-07T03:05:57.479Z,98906.47
2023-01-07T03:08:23.876Z,98912.69
2023-01-07T03:11:00.401Z,98914.44
2023-01-07T03:13:35.875Z,98914.44
2023-01-07T03:16:07.586Z,98904.72
2023-01-07T03:18:40.239Z,98906.53
2023-01-07T03:21:12.646Z,98912.66
2023-01-07T03:23:44.676Z,98908.28
2023-01-07T03:26:14.678Z,98906.53
2023-01-07T03:28:42.703Z,98903.88
2023-01-07T03:31:13.877Z,98902.97
2023-01-07T03:34:08.478Z,98908.25
2023-01-07T03:36:43.028Z,98893.34
2023-01-07T03:39:12.302Z,98899.44
2023-01-07T03:41:58.622Z,98898.56
2023-01-07T03:44:25.384Z,98906.47
2023-01-07T03:46:53.029Z,98900.31
2023-01-07T03:49:19.578Z,98897.69
2023-01-07T03:51:46.645Z,98895.03
2023-01-07T03:54:13.116Z,98887.09
2023-01-07T03:56:39.592Z,98887.09
2023-01-07T03:59:06.065Z,98880.09
2023-01-07T04:01:32.717Z,98887.13
2023-01-07T04:04:01.223Z,98887.13
2023-01-07T04:06:28.848Z,98881.84
2023-01-07T04:08:55.354Z,98866.91
2023-01-07T04:11:21.899Z,98870.41
2023-01-07T04:13:48.371Z,98850.19
2023-01-07T04:16:15.005Z,98868.72
2023-01-07T04:18:41.516Z,98862.56
2023-01-07T04:21:07.965Z,98852.00
2023-01-07T04:23:34.587Z,98855.53
2023-01-07T04:26:03.753Z,98856.44
2023-01-07T04:28:30.410Z,98847.66
2023-01-07T04:30:59.042Z,98842.38
2023-01-07T04:33:25.867Z,98847.66
2023-01-07T04:35:52.404Z,98844.13
2023-01-07T04:38:18.908Z,98833.56
2023-01-07T04:40:45.409Z,98848.53
2023-01-07T04:43:11.916Z,98840.63
2023-01-07T04:45:38.350Z,98842.38
2023-01-07T04:48:05.091Z,98842.38
2023-01-07T04:50:31.632Z,98841.50
2023-01-07T04:52:58.155Z,98845.91
2023-01-07T04:55:24.630Z,98843.25
2023-01-07T04:57:51.091Z,98842.41
2023-01-07T05:00:17.727Z,98833.59
2023-01-07T05:02:44.208Z,98838.88
2023-01-07T05:05:10.811Z,98830.06
2023-01-07T05:07:37.343Z,98822.13
2023-01-07T05:10:04.328Z,98827.41
2023-01-07T05:12:35.150Z,98820.38
2023-01-07T05:15:02.670Z,98822.13
2023-01-07T05:17:29.172Z,98825.66
2023-01-07T05:19:55.707Z,98823.91
2023-01-07T05:22:22.190Z,98823.00
2023-01-07T05:24:48.650Z,98820.38
2023-01-07T05:27:15.194Z,98822.13
2023-01-07T05:29:41.644Z,98823.00
2023-01-07T05:32:08.120Z,98820.38
2023-01-07T05:34:34.573Z,98813.34
2023-01-07T05:37:01.058Z,98817.75
2023-01-07T05:39:27.546Z,98826.56
2023-01-07T05:41:54.057Z,98818.63
2023-01-07T05:44:24.012Z,98818.63
2023-01-07T05:46:50.585Z,98823.00
2023-01-07T05:49:17.092Z,98819.50
2023-01-07T05:51:43.655Z,98818.63
2023-01-07T05:54:10.377Z,98810.69
2023-01-07T05:56:36.824Z,98821.25
2023-01-07T05:59:03.431Z,98810.69
2023-01-07T06:01:29.942Z,98812.47
2023-01-07T06:03:57.790Z,98823.03
2023-01-07T06:06:24.374Z,98816.88
2023-01-07T06:08:50.880Z,98812.50
2023-01-07T06:11:17.440Z,98809.81
2023-01-07T06:13:43.937Z,98803.66
2023-01-07T06:16:13.502Z,98818.63
2023-01-07T06:18:40.045Z,98805.41
2023-01-07T06:21:06.540Z,98800.13
2023-01-07T06:23:33.101Z,98806.28
2023-01-07T06:25:59.618Z,98809.81
2023-01-07T06:28:26.258Z,98805.41
2023-01-07T06:30:52.832Z,98805.41
2023-01-07T06:33:19.505Z,98805.41
2023-01-07T06:35:49.668Z,98808.94
2023-01-07T06:38:16.135Z,98805.41
2023-01-07T06:40:44.569Z,98801.91
2023-01-07T06:43:11.085Z,98806.28
2023-01-07T06:45:41.331Z,98801.00
2023-01-07T06:48:08.195Z,98806.28
2023-01-07T06:50:34.681Z,98808.06
2023-01-07T06:53:01.175Z,98798.38
2023-01-07T06:55:27.713Z,98801.84
2023-01-07T06:57:54.179Z,98802.78
2023-01-07T07:00:21.378Z,98800.13
2023-01-07T07:02:47.905Z,98805.41
2023-01-07T07:05:14.457Z,98786.94
2023-01-07T07:07:41.038Z,98793.97
2023-01-07T07:10:08.603Z,98796.59
2023-01-07T07:12:36.191Z,98794.81
2023-01-07T07:15:02.777Z,98796.56
2023-01-07T07:17:29.322Z,98798.34
2023-01-07T07:19:59.011Z,98800.97
2023-01-07T07:22:25.559Z,98799.22
2023-01-07T07:24:52.084Z,98793.06
2023-01-07T07:27:18.626Z,98793.06
2023-01-07T07:29:45.121Z,98796.59
2023-01-07T07:32:11.605Z,98791.34
2023-01-07T07:34:38.103Z,98788.69
2023-01-07T07:37:04.597Z,98791.31
2023-01-07T07:39:31.104Z,98786.03
2023-01-07T07:41:57.548Z,98787.81
2023-01-07T07:44:24.126Z,98789.59
2023-01-07T07:46:50.614Z,98786.94
2023-01-07T07:49:17.129Z,98786.06
2023-01-07T07:51:43.631Z,98790.47
2023-01-07T07:54:12.575Z,98786.97
2023-01-07T07:56:39.081Z,98786.97
2023-01-07T07:59:05.612Z,98794.03
2023-01-07T08:01:32.161Z,98802.81
2023-01-07T08:03:58.862Z,98804.59
2023-01-07T08:06:25.346Z,98793.13
2023-01-07T08:08:51.812Z,98791.38
2023-01-07T08:11:18.322Z,98792.25
2023-01-07T08:13:45.211Z,98789.63
2023-01-07T08:16:11.761Z,98784.34
2023-01-07T08:18:39.912Z,98789.63
2023-01-07T08:21:08.291Z,98772.03
2023-01-07T08:23:34.882Z,98767.63
2023-01-07T08:26:03.049Z,98769.38
2023-01-07T08:28:30.835Z,98758.81
2023-01-07T08:30:58.127Z,98763.22
2023-01-07T08:33:24.736Z,98767.63
2023-01-07T08:35:51.225Z,98772.91
2023-01-07T08:38:17.748Z,98777.31
2023-01-07T08:40:45.425Z,98761.47
2023-01-07T08:43:12.450Z,98770.28
2023-01-07T08:45:38.888Z,98769.41
2023-01-07T08:48:05.756Z,98766.78
2023-01-07T08:50:33.443Z,98771.16
2023-01-07T08:53:00.349Z,98764.13
2023-01-07T08:55:27.041Z,98770.28
2023-01-07T08:57:53.545Z,98778.22
2023-01-07T09:00:20.600Z,98770.28
2023-01-07T09:02:47.080Z,98760.63
2023-01-07T09:05:14.134Z,98779.13
2023-01-07T09:07:40.862Z,98764.16
2023-01-07T09:10:09.807Z,98765.03
2023-01-07T09:12:36.577Z,98769.41
2023-01-07T09:15:06.390Z,98771.19
2023-01-07T09:17:32.829Z,98770.31
2023-01-07T09:20:03.190Z,98780.00
2023-01-07T09:22:31.554Z,98772.97
2023-01-07T09:24:58.095Z,98780.91
2023-01-07T09:27:26.665Z,98773.81
2023-01-07T09:29:54.474Z,98774.72
2023-01-07T09:32:21.441Z,98779.13
2023-01-07T09:34:47.886Z,98777.34
2023-01-07T09:37:14.457Z,98772.09
2023-01-07T09:39:40.897Z,98773.84
2023-01-07T09:42:21.584Z,98775.66
2023-01-07T09:45:05.139Z,98778.28
2023-01-07T09:47:34.858Z,98778.28
2023-01-07T09:50:18.562Z,98773.00
2023-01-07T09:52:50.498Z,98773.00
2023-01-07T09:55:19.430Z,98789.72
2023-01-07T09:57:45.981Z,98775.66
2023-01-07T10:00:18.511Z,98773.88
2023-01-07T10:02:59.890Z,98779.16
2023-01-07T10:05:49.896Z,98777.41
2023-01-07T10:08:31.878Z,98765.06
2023-01-07T10:11:07.797Z,98761.53
2023-01-07T10:14:02.620Z,98761.53
2023-01-07T10:16:29.102Z,98752.72
2023-01-07T10:19:36.310Z,98754.47
2023-01-07T10:22:35.049Z,98750.09
2023-01-07T10:25:06.859Z,98746.56
2023-01-07T10:27:37.321Z,98737.72
2023-01-07T10:30:15.310Z,98730.66
2023-01-07T10:32:41.834Z,98728.00
2023-01-07T10:35:14.675Z,98725.38
2023-01-07T10:37:43.414Z,98720.97
2023-01-07T10:40:12.844Z,98717.47
2023-01-07T10:42:48.286Z,98724.53
2023-01-07T10:45:20.711Z,98719.22
2023-01-07T10:48:14.979Z,98712.16
2023-01-07T10:51:10.599Z,98699.81
2023-01-07T10:53:55.654Z,98706.88
2023-01-07T10:56:37.800Z,98697.22
2023-01-07T10:59:04.446Z,98699.84
2023-01-07T11:01:37.313Z,98681.31
2023-01-07T11:04:11.137Z,98679.56
2023-01-07T11:06:37.570Z,98667.22
2023-01-07T11:09:09.191Z,98677.78
2023-01-07T11:11:36.701Z,98668.09
2023-01-07T11:14:10.247Z,98665.44
2023-01-07T11:16:43.636Z,98667.22
2023-01-07T11:19:12.312Z,98660.19
2023-01-07T11:21:42.993Z,98657.53
2023-01-07T11:24:19.732Z,98650.47
2023-01-07T11:26:46.751Z,98638.13
2023-01-07T11:29:24.023Z,98646.97
2023-01-07T11:31:54.573Z,98647.84
2023-01-07T11:34:28.431Z,98634.59
2023-01-07T11:36:55.000Z,98633.69
2023-01-07T11:39:26.759Z,98634.56
2023-01-07T11:42:21.859Z,98622.22
2023-01-07T11:44:48.416Z,98617.81
2023-01-07T11:47:18.428Z,98614.31
2023-01-07T11:49:45.954Z,98627.56
2023-01-07T11:52:19.739Z,98615.22
2023-01-07T11:54:51.811Z,98601.09
2023-01-07T11:57:22.960Z,98609.06
2023-01-07T12:00:12.790Z,98598.50
2023-01-07T12:02:39.487Z,98587.94
2023-01-07T12:05:27.021Z,98600.25
2023-01-07T12:07:55.045Z,98574.69
2023-01-07T12:10:27.870Z,98580.88
2023-01-07T12:12:54.790Z,98566.78
2023-01-07T12:15:24.383Z,98569.44
2023-01-07T12:18:11.430Z,98562.41
2023-01-07T12:21:02.641Z,98558.88
2023-01-07T12:24:02.987Z,98550.94
2023-01-07T12:26:36.685Z,98550.97
2023-01-07T12:29:14.037Z,98547.44
2023-01-07T12:31:56.106Z,98551.88
2023-01-07T12:34:31.511Z,98554.53
2023-01-07T12:37:04.584Z,98553.66
2023-01-07T12:39:36.333Z,98545.72
2023-01-07T12:45:00.976Z,98537.78
2023-01-07T12:47:35.918Z,98535.16
2023-01-07T12:50:18.003Z,98532.50
2023-01-07T12:52:56.306Z,98538.69
2023-01-07T12:55:34.646Z,98534.28
2023-01-07T12:58:16.289Z,98534.28
2023-01-07T13:00:57.836Z,98529.00
2023-01-07T13:03:27.212Z,98529.03
2023-01-07T13:06:01.675Z,98518.44
2023-01-07T13:08:43.443Z,98514.06
2023-01-07T13:11:18.434Z,98513.19
2023-01-07T13:13:52.801Z,98520.25
2023-01-07T13:16:19.299Z,98513.19
2023-01-07T13:18:45.894Z,98513.22
2023-01-07T13:21:14.474Z,98514.06
2023-01-07T13:24:02.839Z,98500.84
2023-01-07T13:26:30.876Z,98497.34
2023-01-07T13:29:19.006Z,98496.47
2023-01-07T13:32:06.950Z,98492.06
2023-01-07T13:34:57.668Z,98493.84
2023-01-07T13:37:24.110Z,98493.81
2023-01-07T13:40:13.556Z,98489.44
2023-01-07T13:43:15.028Z,98488.56
2023-01-07T13:45:47.538Z,98491.19
2023-01-07T13:48:21.665Z,98484.16
2023-01-07T13:51:01.782Z,98482.41
2023-01-07T13:53:32.914Z,98481.53
2023-01-07T13:56:17.501Z,98470.06
2023-01-07T13:58:48.920Z,98465.66
2023-01-07T14:01:23.383Z,98462.16
2023-01-07T14:03:53.168Z,98450.72
2023-01-07T14:06:23.762Z,98466.56
2023-01-07T14:08:59.356Z,98463.03
2023-01-07T14:11:42.207Z,98462.16
2023-01-07T14:14:30.273Z,98451.59
2023-01-07T14:17:27.770Z,98456.00
2023-01-07T14:20:12.120Z,98452.50
2023-01-07T14:22:48.636Z,98443.69
2023-01-07T14:25:42.903Z,98440.19
2023-01-07T14:28:31.284Z,98449.00
2023-01-07T14:30:58.538Z,98434.91
2023-01-07T14:33:40.394Z,98447.25
2023-01-07T14:36:09.466Z,98441.97
2023-01-07T14:38:35.940Z,98421.72
2023-01-07T14:41:16.469Z,98429.66
2023-01-07T14:43:45.945Z,98427.00
2023-01-07T14:46:24.721Z,98428.75
2023-01-07T14:49:03.528Z,98433.16
2023-01-07T14:51:51.342Z,98412.06
2023-01-07T14:54:30.099Z,98417.34
2023-01-07T14:57:09.399Z,98414.72
2023-01-07T14:59:48.535Z,98408.56
2023-01-07T15:02:52.303Z,98410.31
2023-01-07T15:05:29.425Z,98393.56
2023-01-07T15:08:20.458Z,98391.78
2023-01-07T15:11:09.563Z,98378.59
2023-01-07T15:14:02.368Z,98374.22
2023-01-07T15:16:32.771Z,98374.25
2023-01-07T15:18:59.998Z,98370.72
2023-01-07T15:21:59.553Z,98368.09
2023-01-07T15:24:38.366Z,98371.59
2023-01-07T15:27:31.902Z,98369.84
2023-01-07T15:30:26.134Z,98369.84
2023-01-07T15:33:05.627Z,98361.06
2023-01-07T15:35:38.487Z,98363.72
2023-01-07T15:38:23.819Z,98360.22
2023-01-07T15:40:50.337Z,98362.84
2023-01-07T15:43:23.908Z,98367.28
2023-01-07T15:46:05.248Z,98360.22
2023-01-07T15:48:31.784Z,98355.84
2023-01-07T15:51:00.259Z,98354.97
2023-01-07T15:53:29.369Z,98346.19
2023-01-07T15:56:01.528Z,98339.13
2023-01-07T15:58:34.057Z,98327.72
2023-01-07T16:01:02.488Z,98336.47
2023-01-07T16:03:30.587Z,98329.47
2023-01-07T16:05:59.250Z,98318.94
2023-01-07T16:08:33.620Z,98311.91
2023-01-07T16:11:05.762Z,98311.03
2023-01-07T16:13:32.819Z,98304.00
2023-01-07T16:16:03.308Z,98300.50
2023-01-07T16:18:33.926Z,98293.44
2023-01-07T16:21:05.456Z,98301.38
2023-01-07T16:23:34.287Z,98311.91
2023-01-07T16:26:06.093Z,98300.53
2023-01-07T16:28:47.450Z,98298.78
2023-01-07T16:31:17.744Z,98295.28
2023-01-07T16:33:45.412Z,98282.97
2023-01-07T16:36:16.383Z,98297.91
2023-01-07T16:38:44.990Z,98288.28
2023-01-07T16:41:25.632Z,98290.97
2023-01-07T16:43:59.999Z,98278.59
2023-01-07T16:46:33.048Z,98283.91
2023-01-07T16:49:08.934Z,98281.25
2023-01-07T16:51:40.244Z,98263.66
2023-01-07T16:54:25.143Z,98271.59
2023-01-07T16:56:55.883Z,98261.06
2023-01-07T16:59:26.239Z,98254.94
2023-01-07T17:01:53.068Z,98247.03
2023-01-07T17:04:25.278Z,98248.75
2023-01-07T17:06:51.800Z,98251.41
2023-01-07T17:09:24.202Z,98236.47
2023-01-07T17:11:52.953Z,98238.22
2023-01-07T17:14:49.710Z,98235.63
2023-01-07T17:17:29.475Z,98227.72
2023-01-07T17:20:22.207Z,98221.56
2023-01-07T17:22:49.894Z,98211.03
2023-01-07T17:25:24.594Z,98209.22
2023-01-07T17:28:19.087Z,98217.13
2023-01-07T17:30:45.597Z,98189.84
2023-01-07T17:33:16.616Z,98199.59
2023-01-07T17:35:45.022Z,98200.47
2023-01-07T17:38:15.798Z,98194.28
2023-01-07T17:40:43.356Z,98195.16
2023-01-07T17:43:37.696Z,98191.69
2023-01-07T17:46:11.190Z,98196.94
2023-01-07T17:48:38.670Z,98191.69
2023-01-07T17:51:07.070Z,98201.38
2023-01-07T17:53:38.978Z,98192.56
2023-01-07T17:56:05.817Z,98192.56
2023-01-07T17:58:35.102Z,98195.19
2023-01-07T18:01:09.218Z,98198.72
2023-01-07T18:03:36.119Z,98182.84
2023-01-07T18:06:03.052Z,98197.75
2023-01-07T18:08:29.563Z,98200.34
2023-01-07T18:11:15.451Z,98190.69
2023-01-07T18:13:42.228Z,98195.06
2023-01-07T18:16:12.446Z,98186.28
2023-01-07T18:18:38.949Z,98184.50
2023-01-07T18:21:05.642Z,98176.59
2023-01-07T18:23:32.083Z,98163.41
2023-01-07T18:25:58.594Z,98159.03
2023-01-07T18:28:25.046Z,98161.66
2023-01-07T18:30:51.619Z,98150.28
2023-01-07T18:33:18.092Z,98143.16
2023-01-07T18:35:44.564Z,98142.31
2023-01-07T18:38:16.090Z,98127.38
2023-01-07T18:40:43.454Z,98125.69
2023-01-07T18:43:17.985Z,98129.19
2023-01-07T18:45:46.023Z,98128.19
2023-01-07T18:48:13.837Z,98131.75
2023-01-07T18:50:41.540Z,98137.94
2023-01-07T18:53:08.115Z,98125.66
2023-01-07T18:55:34.549Z,98123.88
2023-01-07T18:58:01.044Z,98125.66
2023-01-07T19:00:27.691Z,98131.84
2023-01-07T19:02:54.357Z,98131.81
2023-01-07T19:05:20.824Z,98112.53
2023-01-07T19:07:47.359Z,98114.28
2023-01-07T19:10:13.821Z,98118.69
2023-01-07T19:12:40.377Z,98101.97
2023-01-07T19:15:07.457Z,98098.41
2023-01-07T19:17:34.081Z,98115.09
2023-01-07T19:20:00.544Z,98108.03
2023-01-07T19:22:27.014Z,98092.19
2023-01-07T19:24:54.602Z,98098.34
2023-01-07T19:27:21.042Z,98094.84
2023-01-07T19:29:47.501Z,98088.66
2023-01-07T19:32:14.040Z,98085.13
2023-01-07T19:34:40.793Z,98086.91
2023-01-07T19:37:07.351Z,98090.44
2023-01-07T19:39:34.345Z,98092.19
2023-01-07T19:42:00.841Z,98079.91
2023-01-07T19:44:27.372Z,98081.69
2023-01-07T19:46:53.821Z,98073.78
2023-01-07T19:49:20.409Z,98066.72
2023-01-07T19:51:46.868Z,98049.13
2023-01-07T19:54:17.122Z,98055.25
2023-01-07T19:56:44.010Z,98042.97
2023-01-07T19:59:11.038Z,98041.22
2023-01-07T20:01:42.056Z,98039.44
2023-01-07T20:04:08.845Z,98039.44
2023-01-07T20:06:38.891Z,98036.81
2023-01-07T20:09:11.252Z,98037.66
2023-01-07T20:11:39.350Z,98033.28
2023-01-07T20:14:07.469Z,98007.75
2023-01-07T20:16:36.429Z,98019.13
2023-01-07T20:19:03.101Z,98006.81
2023-01-07T20:21:29.611Z,97998.06
2023-01-07T20:23:56.652Z,97991.88
2023-01-07T20:26:26.688Z,97976.88
2023-01-07T20:28:53.167Z,97982.13
2023-01-07T20:31:22.019Z,97974.25
2023-01-07T20:33:50.429Z,97958.44
2023-01-07T20:36:19.677Z,97960.16
2023-01-07T20:38:47.320Z,97947.00
2023-01-07T20:41:25.630Z,97936.41
2023-01-07T20:43:54.841Z,97941.69
2023-01-07T20:46:21.896Z,97932.88
2023-01-07T20:48:49.043Z,97927.59
2023-01-07T20:51:16.207Z,97941.66
2023-01-07T20:53:43.865Z,97937.22
2023-01-07T20:56:12.562Z,97938.03
2023-01-07T20:58:39.742Z,97931.03
2023-01-07T21:01:11.789Z,97928.41
2023-01-07T21:03:39.273Z,97924.84
2023-01-07T21:06:09.678Z,97919.50
2023-01-07T21:08:37.242Z,97922.22
2023-01-07T21:11:04.096Z,97913.34
2023-01-07T21:13:33.529Z,97887.84
2023-01-07T21:16:04.598Z,97922.97
2023-01-07T21:18:32.387Z,97916.84
2023-01-07T21:20:59.337Z,97934.44
2023-01-07T21:23:26.515Z,97933.56
2023-01-07T21:25:55.772Z,97937.13
2023-01-07T21:28:22.289Z,97940.66
2023-01-07T21:30:48.884Z,97932.72
2023-01-07T21:33:15.654Z,97935.38
2023-01-07T21:35:42.338Z,97946.84
2023-01-07T21:38:08.935Z,97956.50
2023-01-07T21:40:37.096Z,97949.47
2023-01-07T21:43:06.426Z,97940.66
2023-01-07T21:45:33.170Z,97941.56
2023-01-07T21:47:59.708Z,97933.63
2023-01-07T21:50:26.248Z,97922.13
2023-01-07T21:52:52.711Z,97939.75
2023-01-07T21:55:19.200Z,97943.31
2023-01-07T21:57:45.738Z,97947.75
2023-01-07T22:00:13.010Z,97931.06
2023-01-07T22:02:39.549Z,97918.72
2023-01-07T22:05:06.609Z,97894.06
2023-01-07T22:07:33.140Z,97907.22
2023-01-07T22:09:59.582Z,97891.47
2023-01-07T22:12:26.327Z,97886.19
2023-01-07T22:14:52.796Z,97881.75
2023-01-07T22:17:24.505Z,97873.84
2023-01-07T22:19:50.994Z,97884.41
2023-01-07T22:22:19.412Z,97891.38
2023-01-07T22:24:46.169Z,97889.59
2023-01-07T22:27:12.716Z,97886.94
2023-01-07T22:29:39.164Z,97884.25
2023-01-07T22:32:05.708Z,97886.00
2023-01-07T22:34:32.482Z,97877.16
2023-01-07T22:37:14.852Z,97874.41
2023-01-07T22:39:50.406Z,97860.28
2023-01-07T22:42:24.361Z,97842.69
2023-01-07T22:45:00.928Z,97863.78
2023-01-07T22:47:39.558Z,97868.19
2023-01-07T22:50:09.609Z,97870.84
2023-01-07T22:52:37.877Z,97882.22
2023-01-07T22:55:05.265Z,97867.25
2023-01-07T22:57:32.826Z,97860.25
2023-01-07T23:00:00.553Z,97866.38
2023-01-07T23:02:27.949Z,97879.50
2023-01-07T23:05:01.166Z,97907.69
2023-01-07T23:07:28.588Z,97913.91
2023-01-07T23:09:55.082Z,97898.06
2023-01-07T23:12:24.847Z,97898.06
2023-01-07T23:14:51.354Z,97903.41
2023-01-07T23:17:17.989Z,97895.53
2023-01-07T23:19:44.477Z,97891.09
2023-01-07T23:22:10.946Z,97890.16
2023-01-07T23:24:37.527Z,97881.41
2023-01-07T23:27:04.100Z,97881.44
2023-01-07T23:29:33.816Z,97878.81
2023-01-07T23:32:00.361Z,97854.19
2023-01-07T23:34:29.873Z,97877.06
2023-01-07T23:36:59.065Z,97851.59
2023-01-07T23:39:25.517Z,97860.44
2023-01-07T23:41:51.998Z,97833.97
2023-01-07T23:44:18.542Z,97826.03
2023-01-07T23:46:45.797Z,97831.34
2023-01-07T23:49:12.487Z,97824.28
2023-01-07T23:51:42.152Z,97835.75
2023-01-07T23:54:08.981Z,97842.78
2023-01-07T23:56:35.526Z,97833.00
2023-01-07T23:59:03.172Z,97814.59
